createdAt,value
2018-09-08T00:01:53.477Z,17.30
2018-09-08T00:04:21.702Z,17.20
2018-09-08T00:06:55.226Z,17.10
2018-09-08T00:09:23.422Z,17.10
2018-09-08T00:11:51.929Z,16.90
2018-09-08T00:14:20.130Z,16.70
2018-09-08T00:16:53.905Z,16.80
2018-09-08T00:19:27.669Z,16.80
2018-09-08T00:22:01.415Z,16.80
2018-09-08T00:24:34.946Z,16.70
2018-09-08T00:27:02.426Z,16.40
2018-09-08T00:29:35.505Z,16.40
2018-09-08T00:32:07.321Z,16.40
2018-09-08T00:34:35.531Z,16.50
2018-09-08T00:37:06.362Z,16.40
2018-09-08T00:39:34.566Z,16.40
2018-09-08T00:42:02.757Z,16.30
2018-09-08T00:44:31.032Z,16.20
2018-09-08T00:46:59.313Z,16.20
2018-09-08T00:49:27.613Z,16.40
2018-09-08T00:51:55.889Z,16.40
2018-09-08T00:54:24.137Z,16.30
2018-09-08T00:56:52.327Z,16.10
2018-09-08T00:59:20.524Z,16.10
2018-09-08T01:01:48.729Z,16.10
2018-09-08T01:04:17.009Z,16.10
2018-09-08T01:06:45.234Z,16.00
2018-09-08T01:09:13.745Z,16.00
2018-09-08T01:11:41.957Z,16.00
2018-09-08T01:14:10.161Z,16.00
2018-09-08T01:16:38.367Z,16.00
2018-09-08T01:19:07.149Z,15.90
2018-09-08T01:21:35.453Z,15.90
2018-09-08T01:24:03.677Z,15.90
2018-09-08T01:26:32.253Z,15.80
2018-09-08T01:29:00.461Z,15.80
2018-09-08T01:31:28.681Z,15.80
2018-09-08T01:33:56.893Z,15.70
2018-09-08T01:36:25.105Z,15.80
2018-09-08T01:38:53.373Z,15.90
2018-09-08T01:41:21.565Z,16.10
2018-09-08T01:43:50.034Z,16.00
2018-09-08T01:46:18.291Z,16.00
2018-09-08T01:48:46.598Z,15.90
2018-09-08T01:51:14.805Z,16.00
2018-09-08T01:53:42.992Z,16.20
2018-09-08T01:56:11.246Z,16.10
2018-09-08T01:58:39.450Z,16.10
2018-09-08T02:01:07.672Z,16.10
2018-09-08T02:03:35.951Z,16.30
2018-09-08T02:06:04.198Z,16.20
2018-09-08T02:08:32.464Z,16.10
2018-09-08T02:11:00.654Z,16.10
2018-09-08T02:13:28.889Z,16.00
2018-09-08T02:15:57.105Z,15.90
2018-09-08T02:18:25.356Z,15.80
2018-09-08T02:20:53.892Z,15.60
2018-09-08T02:23:22.101Z,15.70
2018-09-08T02:25:50.278Z,15.70
2018-09-08T02:28:18.550Z,15.80
2018-09-08T02:30:46.761Z,16.00
2018-09-08T02:33:14.976Z,16.10
2018-09-08T02:35:43.213Z,16.10
2018-09-08T02:38:11.437Z,16.00
2018-09-08T02:40:39.629Z,15.80
2018-09-08T02:43:07.851Z,15.70
2018-09-08T02:45:36.402Z,15.70
2018-09-08T02:48:04.649Z,15.60
2018-09-08T02:50:33.428Z,15.80
2018-09-08T02:53:01.264Z,15.90
2018-09-08T02:55:28.778Z,16.00
2018-09-08T02:57:57.036Z,16.00
2018-09-08T03:00:24.552Z,15.80
2018-09-08T03:02:52.173Z,15.90
2018-09-08T03:05:19.409Z,15.80
2018-09-08T03:07:46.660Z,15.80
2018-09-08T03:10:14.290Z,15.80
2018-09-08T03:12:41.503Z,15.80
2018-09-08T03:15:08.709Z,15.80
2018-09-08T03:17:35.966Z,15.70
2018-09-08T03:20:03.463Z,15.90
2018-09-08T03:22:31.022Z,15.90
2018-09-08T03:24:58.271Z,16.00
2018-09-08T03:27:25.548Z,15.70
2018-09-08T03:29:52.765Z,15.60
2018-09-08T03:32:19.978Z,15.50
2018-09-08T03:34:47.211Z,15.60
2018-09-08T03:37:14.425Z,15.60
2018-09-08T03:39:41.645Z,15.70
2018-09-08T03:42:08.865Z,15.40
2018-09-08T03:44:36.103Z,15.30
2018-09-08T03:47:03.335Z,15.00
2018-09-08T03:49:30.541Z,15.10
2018-09-08T03:51:57.762Z,15.20
2018-09-08T03:54:25.007Z,15.30
2018-09-08T03:56:52.228Z,15.10
2018-09-08T03:59:19.450Z,14.90
2018-09-08T04:01:46.657Z,15.00
2018-09-08T04:04:14.968Z,15.10
2018-09-08T04:06:43.170Z,14.90
2018-09-08T04:09:11.893Z,15.00
2018-09-08T04:11:40.259Z,15.00
2018-09-08T04:14:08.957Z,15.00
2018-09-08T04:16:37.153Z,15.10
2018-09-08T04:19:05.871Z,15.20
2018-09-08T04:21:34.253Z,15.30
2018-09-08T04:24:02.575Z,15.50
2018-09-08T04:26:30.751Z,15.40
2018-09-08T04:28:58.997Z,15.60
2018-09-08T04:31:27.284Z,15.30
2018-09-08T04:33:55.550Z,15.40
2018-09-08T04:36:23.748Z,15.60
2018-09-08T04:38:51.993Z,15.60
2018-09-08T04:41:20.197Z,15.60
2018-09-08T04:43:48.453Z,15.50
2018-09-08T04:46:16.677Z,15.70
2018-09-08T04:48:44.897Z,15.80
2018-09-08T04:51:13.090Z,15.90
2018-09-08T04:53:41.301Z,15.60
2018-09-08T04:56:09.645Z,15.80
2018-09-08T04:58:37.899Z,15.90
2018-09-08T05:01:06.635Z,15.90
2018-09-08T05:03:34.878Z,15.80
2018-09-08T05:06:03.138Z,15.90
2018-09-08T05:08:31.345Z,15.90
2018-09-08T05:10:59.556Z,15.70
2018-09-08T05:13:27.801Z,16.00
2018-09-08T05:15:56.125Z,15.80
2018-09-08T05:18:24.322Z,15.60
2018-09-08T05:20:52.523Z,15.70
2018-09-08T05:23:20.737Z,15.60
2018-09-08T05:25:48.948Z,15.60
2018-09-08T05:28:17.157Z,15.30
2018-09-08T05:30:45.379Z,15.50
2018-09-08T05:33:13.632Z,15.60
2018-09-08T05:35:41.929Z,15.50
2018-09-08T05:38:10.446Z,15.70
2018-09-08T05:40:39.039Z,15.80
2018-09-08T05:43:07.274Z,15.70
2018-09-08T05:45:35.470Z,15.70
2018-09-08T05:48:03.710Z,16.00
2018-09-08T05:50:31.970Z,16.10
2018-09-08T05:53:00.201Z,16.00
2018-09-08T05:55:28.385Z,15.70
2018-09-08T05:57:56.590Z,15.70
2018-09-08T06:00:24.825Z,15.90
2018-09-08T06:02:53.774Z,15.80
2018-09-08T06:05:22.069Z,15.90
2018-09-08T06:07:50.862Z,15.90
2018-09-08T06:10:19.198Z,15.80
2018-09-08T06:12:47.382Z,16.00
2018-09-08T06:15:15.588Z,15.90
2018-09-08T06:17:43.828Z,16.00
2018-09-08T06:20:12.091Z,15.70
2018-09-08T06:22:40.321Z,15.90
2018-09-08T06:25:08.640Z,16.20
2018-09-08T06:27:36.981Z,16.40
2018-09-08T06:30:05.203Z,16.50
2018-09-08T06:32:33.444Z,16.30
2018-09-08T06:35:01.652Z,16.20
2018-09-08T06:37:29.882Z,16.40
2018-09-08T06:39:58.127Z,16.10
2018-09-08T06:42:26.511Z,16.00
2018-09-08T06:44:54.801Z,16.00
2018-09-08T06:47:22.993Z,15.90
2018-09-08T06:49:51.254Z,16.20
2018-09-08T06:52:19.621Z,16.50
2018-09-08T06:54:47.942Z,16.90
2018-09-08T06:57:16.243Z,16.70
2018-09-08T06:59:44.509Z,16.60
2018-09-08T07:02:13.702Z,16.30
2018-09-08T07:04:41.910Z,16.30
2018-09-08T07:07:13.601Z,16.30
2018-09-08T07:09:43.446Z,16.50
2018-09-08T07:12:12.082Z,16.70
2018-09-08T07:14:40.358Z,16.60
2018-09-08T07:17:08.689Z,16.50
2018-09-08T07:19:37.322Z,16.50
2018-09-08T07:22:05.715Z,16.50
2018-09-08T07:24:53.046Z,16.60
2018-09-08T07:27:23.626Z,16.80
2018-09-08T07:29:55.420Z,16.90
2018-09-08T07:32:23.717Z,16.80
2018-09-08T07:34:53.499Z,16.90
2018-09-08T07:37:21.972Z,16.40
2018-09-08T07:39:51.126Z,16.60
2018-09-08T07:42:19.924Z,16.60
2018-09-08T07:44:48.523Z,16.50
2018-09-08T07:47:16.797Z,16.80
2018-09-08T07:49:45.027Z,17.60
2018-09-08T07:52:13.712Z,17.60
2018-09-08T07:54:42.018Z,17.80
2018-09-08T07:57:10.455Z,17.70
2018-09-08T07:59:38.686Z,17.10
2018-09-08T08:02:08.418Z,17.40
2018-09-08T08:04:37.666Z,17.40
2018-09-08T08:07:10.080Z,17.30
2018-09-08T08:09:38.298Z,17.30
2018-09-08T08:12:06.665Z,17.40
2018-09-08T08:14:34.908Z,17.40
2018-09-08T08:17:03.089Z,16.80
2018-09-08T08:19:31.420Z,17.00
2018-09-08T08:21:59.673Z,16.60
2018-09-08T08:24:27.890Z,16.80
2018-09-08T08:26:56.137Z,17.00
2018-09-08T08:29:24.349Z,17.30
2018-09-08T08:31:52.849Z,17.40
2018-09-08T08:34:21.105Z,17.50
2018-09-08T08:36:49.329Z,17.70
2018-09-08T08:39:17.577Z,17.70
2018-09-08T08:41:45.873Z,17.60
2018-09-08T08:44:14.138Z,17.60
2018-09-08T08:46:42.462Z,17.60
2018-09-08T08:49:10.745Z,17.60
2018-09-08T08:51:50.529Z,17.50
2018-09-08T08:54:21.505Z,17.70
2018-09-08T08:56:49.849Z,17.80
2018-09-08T08:59:18.059Z,17.50
2018-09-08T09:01:46.318Z,17.70
2018-09-08T09:04:14.573Z,17.60
2018-09-08T09:06:42.878Z,17.90
2018-09-08T09:09:13.068Z,18.20
2018-09-08T09:11:41.653Z,18.50
2018-09-08T09:14:10.365Z,18.90
2018-09-08T09:19:42.390Z,19.20
2018-09-08T09:22:23.573Z,19.60
2018-09-08T09:24:57.983Z,19.70
2018-09-08T09:27:26.380Z,20.30
2018-09-08T09:29:54.775Z,20.60
2018-09-08T09:32:23.157Z,20.10
2018-09-08T09:34:51.405Z,19.70
2018-09-08T09:37:19.660Z,19.80
2018-09-08T09:39:48.275Z,19.50
2018-09-08T09:42:16.514Z,19.90
2018-09-08T09:44:44.805Z,19.40
2018-09-08T09:47:14.023Z,19.40
2018-09-08T09:49:42.340Z,19.10
2018-09-08T09:52:10.553Z,18.90
2018-09-08T09:54:38.798Z,19.00
2018-09-08T09:57:07.042Z,19.20
2018-09-08T09:59:35.245Z,19.60
2018-09-08T10:02:09.030Z,19.10
2018-09-08T10:04:37.257Z,19.10
2018-09-08T10:07:10.714Z,18.90
2018-09-08T10:09:40.173Z,19.00
2018-09-08T10:12:08.545Z,19.30
2018-09-08T10:14:36.762Z,18.60
2018-09-08T10:17:05.032Z,18.50
2018-09-08T10:19:33.306Z,18.70
2018-09-08T10:22:01.505Z,19.50
2018-09-08T10:24:29.754Z,20.20
2018-09-08T10:26:58.653Z,20.20
2018-09-08T10:29:26.845Z,20.30
2018-09-08T10:31:55.144Z,21.40
2018-09-08T10:34:23.341Z,21.60
2018-09-08T10:36:51.541Z,21.40
2018-09-08T10:39:19.814Z,21.40
2018-09-08T10:41:47.997Z,21.90
2018-09-08T10:44:16.229Z,21.90
2018-09-08T10:46:44.454Z,21.00
2018-09-08T10:49:12.759Z,20.80
2018-09-08T10:52:03.722Z,21.10
2018-09-08T10:54:32.006Z,20.90
2018-09-08T10:57:00.236Z,20.70
2018-09-08T10:59:28.510Z,21.00
2018-09-08T11:01:56.835Z,20.90
2018-09-08T11:04:25.017Z,21.10
2018-09-08T11:06:53.226Z,20.70
2018-09-08T11:09:21.517Z,20.80
2018-09-08T11:11:49.742Z,20.70
2018-09-08T11:14:18.005Z,20.50
2018-09-08T11:16:46.298Z,20.50
2018-09-08T11:19:14.586Z,21.10
2018-09-08T11:21:42.901Z,21.30
2018-09-08T11:24:11.114Z,21.40
2018-09-08T11:26:39.412Z,21.30
2018-09-08T11:29:07.682Z,21.00
2018-09-08T11:31:35.940Z,21.40
2018-09-08T11:34:04.186Z,21.20
2018-09-08T11:36:32.481Z,21.50
2018-09-08T11:39:01.174Z,21.30
2018-09-08T11:41:29.407Z,20.90
2018-09-08T11:43:57.677Z,20.90
2018-09-08T11:46:25.889Z,21.00
2018-09-08T11:48:54.482Z,21.00
2018-09-08T11:51:22.709Z,20.40
2018-09-08T11:53:50.909Z,20.40
2018-09-08T11:56:19.106Z,19.90
2018-09-08T11:58:47.377Z,20.00
2018-09-08T12:01:15.595Z,20.60
2018-09-08T12:03:43.873Z,20.70
2018-09-08T12:06:12.193Z,21.40
2018-09-08T12:08:40.443Z,21.60
2018-09-08T12:11:08.669Z,21.60
2018-09-08T12:13:36.894Z,21.90
2018-09-08T12:16:05.214Z,21.10
2018-09-08T12:18:33.406Z,21.50
2018-09-08T12:21:01.654Z,21.30
2018-09-08T12:23:29.929Z,21.10
2018-09-08T12:25:58.182Z,20.90
2018-09-08T12:28:26.432Z,20.80
2018-09-08T12:30:54.704Z,20.70
2018-09-08T12:33:22.927Z,21.00
2018-09-08T12:35:51.204Z,20.90
2018-09-08T12:38:19.485Z,20.80
2018-09-08T12:40:47.685Z,20.80
2018-09-08T12:43:15.897Z,20.70
2018-09-08T12:45:44.277Z,20.90
2018-09-08T12:48:12.435Z,21.00
2018-09-08T12:50:40.633Z,20.80
2018-09-08T12:53:09.013Z,20.30
2018-09-08T12:55:37.221Z,20.40
2018-09-08T12:58:05.574Z,20.30
2018-09-08T13:00:33.798Z,20.30
2018-09-08T13:03:02.038Z,20.50
2018-09-08T13:05:30.514Z,20.60
2018-09-08T13:07:58.713Z,19.90
2018-09-08T13:10:26.930Z,20.20
2018-09-08T13:12:55.118Z,20.40
2018-09-08T13:15:23.845Z,20.30
2018-09-08T13:17:52.073Z,20.30
2018-09-08T13:20:20.382Z,20.00
2018-09-08T13:22:48.582Z,19.90
2018-09-08T13:25:16.838Z,19.80
2018-09-08T13:27:45.354Z,19.90
2018-09-08T13:30:13.661Z,20.00
2018-09-08T13:32:41.886Z,19.90
2018-09-08T13:35:10.085Z,19.60
2018-09-08T13:37:38.336Z,19.60
2018-09-08T13:40:06.636Z,19.60
2018-09-08T13:42:34.945Z,19.70
2018-09-08T13:45:03.262Z,19.50
2018-09-08T13:47:31.462Z,19.10
2018-09-08T13:49:59.670Z,19.50
2018-09-08T13:52:27.878Z,19.70
2018-09-08T13:54:56.141Z,19.70
2018-09-08T13:57:24.410Z,19.60
2018-09-08T13:59:52.613Z,19.60
2018-09-08T14:02:20.855Z,19.90
2018-09-08T14:04:49.063Z,20.10
2018-09-08T14:07:17.288Z,19.90
2018-09-08T14:09:45.490Z,19.60
2018-09-08T14:12:13.682Z,19.80
2018-09-08T14:14:42.018Z,20.00
2018-09-08T14:17:10.326Z,19.60
2018-09-08T14:19:38.533Z,19.50
2018-09-08T14:22:06.909Z,19.50
2018-09-08T14:24:35.133Z,19.70
2018-09-08T14:27:03.382Z,19.90
2018-09-08T14:29:31.662Z,20.10
2018-09-08T14:31:59.868Z,19.80
2018-09-08T14:34:28.170Z,20.00
2018-09-08T14:36:56.377Z,20.10
2018-09-08T14:39:24.600Z,20.10
2018-09-08T14:41:52.929Z,20.10
2018-09-08T14:44:21.122Z,19.90
2018-09-08T14:46:49.344Z,19.60
2018-09-08T14:49:17.605Z,19.50
2018-09-08T14:51:45.821Z,20.00
2018-09-08T14:54:14.071Z,20.20
2018-09-08T14:56:42.379Z,19.50
2018-09-08T14:59:10.590Z,19.90
2018-09-08T15:01:38.861Z,19.90
2018-09-08T15:04:07.069Z,19.90
2018-09-08T15:06:35.319Z,19.90
2018-09-08T15:09:03.977Z,20.00
2018-09-08T15:11:32.278Z,19.90
2018-09-08T15:14:00.506Z,19.80
2018-09-08T15:16:28.765Z,19.60
2018-09-08T15:18:56.980Z,19.40
2018-09-08T15:21:25.181Z,19.50
2018-09-08T15:23:53.759Z,19.70
2018-09-08T15:26:22.048Z,19.50
2018-09-08T15:28:50.289Z,19.20
2018-09-08T15:31:18.527Z,19.30
2018-09-08T15:33:46.785Z,19.20
2018-09-08T15:36:14.993Z,19.10
2018-09-08T15:38:43.210Z,19.50
2018-09-08T15:41:11.426Z,19.60
2018-09-08T15:43:39.634Z,19.90
2018-09-08T15:46:07.917Z,19.40
2018-09-08T15:48:36.245Z,19.50
2018-09-08T15:51:04.501Z,19.20
2018-09-08T15:53:32.923Z,19.30
2018-09-08T15:56:01.170Z,19.10
2018-09-08T15:58:29.734Z,19.20
2018-09-08T16:00:57.874Z,19.30
2018-09-08T16:03:26.067Z,18.90
2018-09-08T16:05:54.278Z,19.00
2018-09-08T16:08:22.486Z,19.00
2018-09-08T16:10:50.806Z,19.30
2018-09-08T16:13:18.998Z,19.40
2018-09-08T16:15:47.245Z,19.80
2018-09-08T16:18:15.445Z,19.70
2018-09-08T16:20:43.655Z,19.50
2018-09-08T16:23:11.920Z,19.50
2018-09-08T16:25:40.186Z,19.50
2018-09-08T16:28:08.462Z,19.40
2018-09-08T16:30:36.767Z,19.70
2018-09-08T16:33:05.074Z,19.50
2018-09-08T16:35:33.406Z,19.70
2018-09-08T16:38:01.648Z,19.60
2018-09-08T16:40:29.961Z,19.20
2018-09-08T16:42:58.214Z,19.50
2018-09-08T16:45:26.466Z,19.40
2018-09-08T16:47:54.733Z,19.50
2018-09-08T16:50:23.014Z,19.50
2018-09-08T16:52:51.310Z,19.50
2018-09-08T16:55:19.661Z,19.40
2018-09-08T16:57:47.882Z,19.30
2018-09-08T17:00:16.096Z,19.60
2018-09-08T17:02:44.285Z,19.40
2018-09-08T17:05:12.552Z,19.20
2018-09-08T17:07:40.776Z,19.30
2018-09-08T17:10:09.140Z,19.30
2018-09-08T17:12:37.324Z,19.40
2018-09-08T17:15:06.441Z,19.60
2018-09-08T17:17:34.737Z,19.30
2018-09-08T17:20:02.938Z,19.20
2018-09-08T17:22:31.254Z,19.50
2018-09-08T17:24:59.634Z,19.30
2018-09-08T17:27:27.896Z,19.30
2018-09-08T17:29:56.127Z,19.10
2018-09-08T17:32:24.385Z,18.90
2018-09-08T17:34:52.580Z,18.70
2018-09-08T17:37:20.870Z,19.00
2018-09-08T17:39:49.080Z,19.00
2018-09-08T17:42:17.346Z,19.10
2018-09-08T17:44:45.606Z,19.00
2018-09-08T17:47:13.841Z,19.10
2018-09-08T17:49:42.128Z,19.10
2018-09-08T17:52:10.542Z,19.20
2018-09-08T17:54:38.713Z,19.10
2018-09-08T17:57:06.947Z,19.20
2018-09-08T17:59:35.217Z,19.20
2018-09-08T18:02:03.414Z,19.40
2018-09-08T18:04:31.680Z,19.10
2018-09-08T18:06:59.893Z,18.90
2018-09-08T18:09:28.145Z,19.00
2018-09-08T18:11:56.349Z,18.90
2018-09-08T18:14:24.632Z,19.00
2018-09-08T18:16:52.873Z,18.90
2018-09-08T18:19:21.150Z,19.00
2018-09-08T18:21:49.630Z,18.80
2018-09-08T18:24:17.846Z,18.90
2018-09-08T18:26:46.053Z,18.60
2018-09-08T18:29:14.243Z,18.70
2018-09-08T18:31:42.451Z,18.50
2018-09-08T18:34:10.739Z,18.80
2018-09-08T18:36:39.203Z,18.80
2018-09-08T18:39:07.473Z,18.80
2018-09-08T18:41:35.759Z,18.80
2018-09-08T18:44:03.910Z,18.70
2018-09-08T18:46:32.182Z,18.80
2018-09-08T18:49:00.437Z,18.80
2018-09-08T18:51:28.638Z,19.00
2018-09-08T18:53:56.969Z,19.00
2018-09-08T18:56:25.106Z,19.10
2018-09-08T18:58:53.369Z,19.10
2018-09-08T19:01:21.605Z,19.10
2018-09-08T19:03:49.850Z,19.00
2018-09-08T19:06:18.148Z,19.10
2018-09-08T19:08:46.386Z,19.10
2018-09-08T19:11:15.478Z,19.00
2018-09-08T19:13:44.826Z,19.00
2018-09-08T19:16:13.128Z,18.90
2018-09-08T19:18:41.343Z,19.10
2018-09-08T19:21:09.554Z,19.00
2018-09-08T19:23:37.851Z,18.90
2018-09-08T19:26:06.166Z,18.90
2018-09-08T19:28:34.401Z,18.90
2018-09-08T19:31:02.610Z,19.10
2018-09-08T19:33:30.819Z,19.20
2018-09-08T19:35:59.082Z,19.20
2018-09-08T19:38:27.306Z,19.20
2018-09-08T19:40:55.526Z,19.40
2018-09-08T19:43:23.785Z,19.20
2018-09-08T19:45:52.357Z,19.30
2018-09-08T19:48:21.629Z,19.20
2018-09-08T19:50:49.898Z,18.80
2018-09-08T19:53:23.741Z,19.00
2018-09-08T19:55:52.569Z,18.90
2018-09-08T19:58:26.258Z,18.90
2018-09-08T20:00:54.566Z,18.60
2018-09-08T20:03:22.751Z,18.60
2018-09-08T20:05:51.014Z,18.60
2018-09-08T20:08:19.213Z,18.70
2018-09-08T20:10:47.417Z,18.70
2018-09-08T20:13:15.670Z,18.70
2018-09-08T20:15:43.861Z,18.60
2018-09-08T20:18:12.074Z,18.60
2018-09-08T20:20:40.329Z,18.50
2018-09-08T20:23:08.543Z,18.20
2018-09-08T20:25:36.786Z,18.40
2018-09-08T20:28:04.977Z,18.40
2018-09-08T20:30:33.182Z,18.30
2018-09-08T20:33:01.390Z,18.10
2018-09-08T20:35:29.582Z,18.20
2018-09-08T20:37:57.796Z,18.30
2018-09-08T20:40:26.043Z,18.30
2018-09-08T20:42:54.329Z,18.30
2018-09-08T20:45:22.574Z,18.50
2018-09-08T20:47:50.863Z,18.50
2018-09-08T20:50:19.030Z,18.50
2018-09-08T20:52:47.224Z,18.30
2018-09-08T20:55:15.438Z,18.40
2018-09-08T20:57:43.645Z,18.30
2018-09-08T21:00:11.974Z,18.00
2018-09-08T21:02:40.178Z,18.20
2018-09-08T21:05:08.441Z,17.60
2018-09-08T21:07:37.395Z,17.80
2018-09-08T21:10:05.650Z,17.80
2018-09-08T21:12:33.849Z,17.90
2018-09-08T21:15:03.068Z,18.00
2018-09-08T21:17:31.320Z,18.20
2018-09-08T21:19:59.569Z,18.20
2018-09-08T21:22:27.773Z,18.10
2018-09-08T21:24:56.121Z,18.10
2018-09-08T21:27:24.309Z,18.00
2018-09-08T21:29:52.541Z,18.00
2018-09-08T21:32:20.769Z,18.00
2018-09-08T21:34:49.022Z,17.60
2018-09-08T21:37:17.247Z,17.40
2018-09-08T21:39:45.515Z,17.60
2018-09-08T21:42:13.791Z,17.70
2018-09-08T21:44:41.991Z,17.70
2018-09-08T21:47:10.189Z,17.50
2018-09-08T21:49:38.474Z,17.40
2018-09-08T21:52:06.757Z,17.70
2018-09-08T21:54:34.993Z,17.40
2018-09-08T21:57:03.210Z,17.40
2018-09-08T21:59:31.491Z,17.50
2018-09-08T22:02:00.390Z,17.70
2018-09-08T22:04:28.653Z,17.90
2018-09-08T22:06:56.906Z,17.80
2018-09-08T22:09:25.157Z,17.60
2018-09-08T22:11:53.353Z,17.50
2018-09-08T22:14:21.619Z,17.50
2018-09-08T22:16:49.852Z,17.70
2018-09-08T22:19:18.102Z,17.70
2018-09-08T22:21:46.357Z,17.50
2018-09-08T22:24:14.577Z,17.70
2018-09-08T22:26:42.994Z,17.60
2018-09-08T22:29:11.265Z,17.60
2018-09-08T22:31:39.565Z,17.50
2018-09-08T22:34:07.785Z,17.50
2018-09-08T22:36:35.995Z,17.70
2018-09-08T22:39:05.614Z,17.80
2018-09-08T22:41:33.835Z,17.60
2018-09-08T22:44:02.065Z,17.60
2018-09-08T22:46:30.651Z,17.50
2018-09-08T22:48:58.854Z,17.50
2018-09-08T22:51:27.192Z,17.70
2018-09-08T22:53:55.333Z,18.00
2018-09-08T22:56:23.526Z,18.00
2018-09-08T22:58:52.060Z,17.90
2018-09-08T23:01:20.308Z,17.90
2018-09-08T23:03:48.557Z,17.80
2018-09-08T23:06:16.774Z,17.90
2018-09-08T23:08:45.037Z,17.90
2018-09-08T23:11:13.254Z,17.80
2018-09-08T23:13:41.457Z,17.70
2018-09-08T23:16:09.691Z,17.50
2018-09-08T23:18:37.898Z,17.60
2018-09-08T23:21:06.313Z,17.60
2018-09-08T23:23:34.556Z,17.50
2018-09-08T23:26:02.810Z,17.60
2018-09-08T23:28:31.038Z,17.30
2018-09-08T23:30:59.299Z,17.30
2018-09-08T23:33:27.497Z,17.60
2018-09-08T23:35:55.703Z,17.20
2018-09-08T23:38:23.903Z,17.40
2018-09-08T23:40:52.101Z,17.20
2018-09-08T23:43:20.309Z,17.20
2018-09-08T23:45:48.517Z,17.40
2018-09-08T23:48:16.716Z,17.50
2018-09-08T23:50:44.917Z,17.70
2018-09-08T23:53:13.123Z,17.80
2018-09-08T23:55:41.590Z,17.60
2018-09-08T23:58:09.797Z,17.60
